Time;durP1;ratioP1;P1;durP2;ratioP2;P2;SDS_P1;SDS_P2;PMS_P1;PMS_P2;Temp;Humidity;BMP_temperature;BMP_pressure;BME280_temperature;BME280_humidity;BME280_pressure;Samples;Min_cycle;Max_cycle;Signal;HPM_P1;HPM_P2
2022/03/08 00:01:21;;;;;;;68.07;23.70;;;-1.40;21.20;;;;;;5042987;28;20878;-67
2022/03/08 00:03:48;;;;;;;64.87;24.73;;;-1.40;21.30;;;;;;5037007;28;20474;-67
2022/03/08 00:06:16;;;;;;;67.50;25.57;;;-1.30;21.70;;;;;;5037699;28;20489;-67
2022/03/08 00:08:43;;;;;;;62.40;24.70;;;-1.40;21.70;;;;;;5048682;28;20466;-67
2022/03/08 00:11:10;;;;;;;72.77;25.07;;;-1.40;21.80;;;;;;5048936;28;20701;-67
2022/03/08 00:13:36;;;;;;;63.33;24.40;;;-1.40;22.20;;;;;;5049077;28;20972;-69
2022/03/08 00:16:03;;;;;;;69.53;25.57;;;-1.40;22.20;;;;;;5048206;28;20476;-68
2022/03/08 00:18:30;;;;;;;66.80;25.67;;;-1.50;22.50;;;;;;5049880;28;20458;-67
2022/03/08 00:20:57;;;;;;;64.33;23.10;;;-1.50;22.90;;;;;;5033839;28;20477;-67
2022/03/08 00:23:25;;;;;;;65.33;23.50;;;-1.50;22.70;;;;;;5028712;28;20467;-67
2022/03/08 00:25:52;;;;;;;66.23;23.87;;;-1.50;22.60;;;;;;5033061;28;20458;-66
2022/03/08 00:28:19;;;;;;;67.00;23.87;;;-1.60;22.40;;;;;;5048586;28;20458;-67
2022/03/08 00:30:46;;;;;;;67.30;23.43;;;-1.60;22.40;;;;;;5048851;28;20466;-67
2022/03/08 00:33:13;;;;;;;66.50;23.70;;;-1.60;22.30;;;;;;5048346;28;20573;-68
2022/03/08 00:35:40;;;;;;;66.67;24.67;;;-1.70;22.50;;;;;;5048829;28;20486;-68
2022/03/08 00:38:06;;;;;;;64.87;24.17;;;-1.70;23.30;;;;;;5045754;28;20462;-69
2022/03/08 00:40:35;;;;;;;68.47;26.77;;;-1.70;23.20;;;;;;5049063;28;20465;-68
2022/03/08 00:43:02;;;;;;;69.20;24.63;;;-1.70;23.50;;;;;;5048932;28;20519;-68
2022/03/08 00:45:29;;;;;;;66.30;24.03;;;-1.70;23.60;;;;;;5048677;28;20454;-68
2022/03/08 00:47:56;;;;;;;66.23;25.03;;;-1.80;23.40;;;;;;5047494;28;20470;-68
2022/03/08 00:50:30;;;;;;;67.97;24.53;;;-1.80;23.40;;;;;;5048127;28;20970;-67
2022/03/08 00:52:59;;;;;;;65.20;25.30;;;-1.80;23.40;;;;;;5047677;28;20485;-68
2022/03/08 00:55:27;;;;;;;67.70;24.73;;;-1.80;23.70;;;;;;5048449;28;20478;-68
2022/03/08 00:57:56;;;;;;;62.37;23.10;;;-1.80;23.50;;;;;;5047129;28;20461;-68
2022/03/08 01:00:26;;;;;;;62.67;24.40;;;-1.90;23.30;;;;;;5048004;28;20458;-68
2022/03/08 01:02:52;;;;;;;62.17;23.50;;;-1.90;23.60;;;;;;5047530;28;20968;-68
2022/03/08 01:05:19;;;;;;;64.63;23.53;;;-1.90;23.40;;;;;;5049804;28;20457;-68
2022/03/08 01:07:47;;;;;;;66.13;24.40;;;-1.90;23.50;;;;;;5048093;28;20462;-67
2022/03/08 01:10:16;;;;;;;64.40;24.10;;;-2.00;23.40;;;;;;5048604;28;20516;-68
2022/03/08 01:12:43;;;;;;;65.37;23.20;;;-2.00;23.40;;;;;;5047253;28;20482;-68
2022/03/08 01:15:12;;;;;;;63.97;23.10;;;-2.00;23.50;;;;;;5048099;28;20484;-69
2022/03/08 01:17:39;;;;;;;71.27;25.77;;;-2.00;23.50;;;;;;5048886;28;20454;-68
2022/03/08 01:20:08;;;;;;;66.23;24.63;;;-2.10;23.50;;;;;;5047433;28;20466;-68
2022/03/08 01:22:35;;;;;;;67.43;24.10;;;-2.10;23.60;;;;;;5047598;28;20481;-68
2022/03/08 01:25:02;;;;;;;70.40;23.53;;;-2.10;23.60;;;;;;5048016;28;20450;-68
2022/03/08 01:27:29;;;;;;;62.47;22.70;;;-2.10;23.60;;;;;;5047889;28;20461;-67
2022/03/08 01:29:56;;;;;;;65.53;22.40;;;-2.10;23.60;;;;;;5047266;28;20469;-68
2022/03/08 01:32:24;;;;;;;67.10;23.07;;;-2.20;23.70;;;;;;5046829;28;20482;-68
2022/03/08 01:34:51;;;;;;;62.70;22.10;;;-2.20;24.20;;;;;;5047570;28;20481;-68
2022/03/08 01:37:18;;;;;;;65.27;22.00;;;-2.20;24.50;;;;;;5043587;28;21092;-68
2022/03/08 01:39:45;;;;;;;68.53;22.13;;;-2.20;25.00;;;;;;5046610;28;20854;-68
2022/03/08 01:42:14;;;;;;;62.50;21.80;;;-2.20;24.70;;;;;;5047762;28;20492;-68
2022/03/08 01:44:41;;;;;;;65.80;22.73;;;-2.20;24.80;;;;;;5045889;28;20465;-68
2022/03/08 01:47:08;;;;;;;60.40;20.63;;;-2.20;24.80;;;;;;5028086;28;20520;-68
2022/03/08 01:49:36;;;;;;;68.83;23.27;;;-2.20;24.80;;;;;;5030889;28;20561;-68
2022/03/08 01:52:04;;;;;;;63.87;23.50;;;-2.20;24.60;;;;;;5046782;28;20983;-68
2022/03/08 01:54:30;;;;;;;62.33;23.23;;;-2.20;24.50;;;;;;5047426;28;20989;-68
2022/03/08 01:56:57;;;;;;;71.53;24.87;;;-2.30;24.60;;;;;;5046694;28;20985;-68
2022/03/08 01:59:24;;;;;;;60.10;21.70;;;-2.30;24.50;;;;;;5048353;28;20569;-68
2022/03/08 02:01:51;;;;;;;65.40;22.77;;;-2.30;24.50;;;;;;5040148;28;20511;-68
2022/03/08 02:04:18;;;;;;;64.13;22.60;;;-2.30;25.30;;;;;;5048635;28;20468;-68
2022/03/08 02:06:47;;;;;;;65.77;21.40;;;-2.30;25.00;;;;;;5048632;28;20946;-68
2022/03/08 02:09:14;;;;;;;63.23;22.33;;;-2.30;24.90;;;;;;5048824;28;20552;-68
2022/03/08 02:11:42;;;;;;;56.60;20.50;;;-2.40;25.00;;;;;;5045799;28;20482;-69
2022/03/08 02:14:08;;;;;;;61.63;20.90;;;-2.30;25.40;;;;;;5047242;28;20461;-69
2022/03/08 02:16:35;;;;;;;60.57;20.30;;;-2.40;25.10;;;;;;5046929;28;20485;-67
2022/03/08 02:19:02;;;;;;;58.00;18.87;;;-2.40;25.00;;;;;;5047820;28;20469;-68
2022/03/08 02:21:34;;;;;;;62.87;21.83;;;-2.40;24.90;;;;;;5044380;28;21041;-68
2022/03/08 02:24:01;;;;;;;57.80;19.07;;;-2.40;25.00;;;;;;5047258;28;20832;-68
2022/03/08 02:26:27;;;;;;;62.93;19.17;;;-2.40;24.80;;;;;;5047875;28;20454;-68
2022/03/08 02:28:56;;;;;;;59.50;20.50;;;-2.40;25.00;;;;;;5050795;28;20462;-68
2022/03/08 02:31:23;;;;;;;61.77;19.30;;;-2.40;24.90;;;;;;5049775;28;20481;-68
2022/03/08 02:33:50;;;;;;;64.90;19.40;;;-2.40;25.10;;;;;;5050829;28;20442;-67
2022/03/08 02:36:17;;;;;;;58.53;19.57;;;-2.40;25.00;;;;;;5050037;28;21009;-68
2022/03/08 02:38:45;;;;;;;63.43;19.67;;;-2.50;25.00;;;;;;5051300;28;20453;-68
2022/03/08 02:41:12;;;;;;;59.40;19.40;;;-2.50;25.00;;;;;;5052448;28;20990;-68
2022/03/08 02:43:38;;;;;;;60.33;20.03;;;-2.50;25.00;;;;;;5050436;28;20469;-68
2022/03/08 02:46:05;;;;;;;61.33;20.40;;;-2.50;25.10;;;;;;5051012;28;20486;-68
2022/03/08 02:48:32;;;;;;;60.23;20.07;;;-2.50;25.00;;;;;;5051221;28;20458;-68
2022/03/08 02:50:59;;;;;;;59.10;19.70;;;-2.50;25.20;;;;;;5050324;28;21005;-67
2022/03/08 02:53:26;;;;;;;59.63;20.50;;;-2.50;25.20;;;;;;5049837;28;20461;-68
2022/03/08 02:55:54;;;;;;;59.17;19.57;;;-2.50;25.10;;;;;;5050639;28;20486;-67
2022/03/08 02:58:21;;;;;;;60.03;18.43;;;-2.50;25.20;;;;;;5050935;28;20458;-68
2022/03/08 03:00:48;;;;;;;56.07;17.47;;;-2.50;25.40;;;;;;5050100;28;20851;-68
2022/03/08 03:03:15;;;;;;;60.53;19.17;;;-2.50;25.40;;;;;;5049042;28;20572;-68
2022/03/08 03:05:41;;;;;;;58.33;18.83;;;-2.50;25.40;;;;;;5048608;28;20455;-67
2022/03/08 03:08:09;;;;;;;62.53;18.93;;;-2.50;25.30;;;;;;5048534;28;20468;-67
2022/03/08 03:10:35;;;;;;;62.17;20.67;;;-2.50;25.30;;;;;;5050407;28;20461;-67
2022/03/08 03:13:04;;;;;;;59.67;19.10;;;-2.60;25.20;;;;;;5049488;28;20484;-68
2022/03/08 03:15:31;;;;;;;60.30;20.00;;;-2.60;25.40;;;;;;5050158;28;20482;-68
2022/03/08 03:17:59;;;;;;;58.97;19.67;;;-2.60;25.10;;;;;;5049768;28;20454;-68
2022/03/08 03:20:27;;;;;;;58.90;18.77;;;-2.60;25.10;;;;;;5050487;28;20540;-68
2022/03/08 03:22:54;;;;;;;59.07;19.33;;;-2.60;25.30;;;;;;5049802;28;20521;-67
2022/03/08 03:25:21;;;;;;;62.20;19.37;;;-2.60;25.20;;;;;;5049412;28;20950;-68
2022/03/08 03:27:48;;;;;;;61.60;20.53;;;-2.70;25.10;;;;;;5050243;28;20492;-68
2022/03/08 03:30:19;;;;;;;59.57;19.60;;;-2.70;25.50;;;;;;5049467;28;20469;-68
2022/03/08 03:32:46;;;;;;;59.80;19.20;;;-2.70;25.60;;;;;;5049294;28;20490;-68
2022/03/08 03:35:13;;;;;;;60.53;19.17;;;-2.70;25.60;;;;;;5047089;28;20478;-68
2022/03/08 03:37:40;;;;;;;56.73;18.97;;;-2.70;25.70;;;;;;5049459;28;20468;-68
2022/03/08 03:40:09;;;;;;;57.30;18.47;;;-2.70;25.60;;;;;;5048980;28;20465;-68
2022/03/08 03:42:36;;;;;;;57.03;18.27;;;-2.30;25.90;;;;;;5043045;28;20479;-68
2022/03/08 03:45:03;;;;;;;60.67;19.70;;;-2.80;26.20;;;;;;5029818;28;20467;-68
2022/03/08 03:47:32;;;;;;;62.97;20.43;;;-2.80;25.60;;;;;;5047066;28;20465;-70
2022/03/08 03:49:59;;;;;;;57.57;18.67;;;-2.80;25.90;;;;;;5050156;28;21163;-68
2022/03/08 03:52:25;;;;;;;59.47;19.70;;;-2.80;26.20;;;;;;5049216;28;20489;-68
2022/03/08 03:54:52;;;;;;;65.37;20.40;;;-2.80;26.50;;;;;;5048876;28;20540;-68
2022/03/08 03:57:19;;;;;;;61.07;19.90;;;-2.80;26.80;;;;;;5047913;28;20478;-67
2022/03/08 03:59:46;;;;;;;64.83;20.70;;;-2.80;27.00;;;;;;5048793;28;20466;-68
2022/03/08 04:02:14;;;;;;;59.57;19.80;;;-2.80;27.30;;;;;;5048960;28;20980;-67
2022/03/08 04:04:42;;;;;;;64.57;19.90;;;-2.70;27.40;;;;;;5047764;28;20546;-68
2022/03/08 04:07:09;;;;;;;55.60;17.77;;;-2.70;26.90;;;;;;5048086;28;20461;-68
2022/03/08 04:09:35;;;;;;;62.70;19.83;;;-2.70;26.60;;;;;;5048327;28;20653;-68
2022/03/08 04:12:02;;;;;;;60.93;20.87;;;-2.70;26.40;;;;;;5048034;28;20478;-68
2022/03/08 04:14:29;;;;;;;60.83;19.33;;;-2.70;26.40;;;;;;5049470;28;20457;-69
2022/03/08 04:16:56;;;;;;;59.67;19.07;;;-2.80;26.50;;;;;;5049624;28;20482;-66
2022/03/08 04:19:23;;;;;;;66.00;18.27;;;-2.70;26.90;;;;;;5048353;28;20474;-66
2022/03/08 04:21:51;;;;;;;60.57;18.67;;;-2.70;26.60;;;;;;5047950;28;20478;-67
2022/03/08 04:24:18;;;;;;;56.83;17.67;;;-2.70;26.80;;;;;;5049467;28;20465;-67
2022/03/08 04:26:44;;;;;;;53.87;16.13;;;-2.80;26.50;;;;;;5047246;28;21371;-68
2022/03/08 04:29:11;;;;;;;57.60;20.63;;;-2.80;26.30;;;;;;5047298;28;20885;-68
2022/03/08 04:31:38;;;;;;;51.63;16.07;;;-2.80;26.40;;;;;;5046980;28;21045;-68
2022/03/08 04:34:05;;;;;;;62.17;19.77;;;-2.80;26.40;;;;;;5047903;28;20453;-68
2022/03/08 04:36:32;;;;;;;57.17;18.50;;;-2.80;26.40;;;;;;5047674;28;20478;-68
2022/03/08 04:39:00;;;;;;;58.50;18.40;;;-2.80;27.00;;;;;;5047501;28;20665;-67
2022/03/08 04:41:27;;;;;;;56.80;18.30;;;-2.80;26.20;;;;;;5046981;28;20482;-68
2022/03/08 04:43:54;;;;;;;57.70;19.50;;;-2.90;26.30;;;;;;5047536;28;20880;-67
2022/03/08 04:46:20;;;;;;;59.10;18.40;;;-2.80;26.30;;;;;;5048341;28;20458;-68
2022/03/08 04:48:47;;;;;;;57.07;17.57;;;-2.90;26.30;;;;;;5047680;28;20462;-68
2022/03/08 04:51:14;;;;;;;59.50;19.93;;;-2.80;26.50;;;;;;5045466;28;20505;-67
2022/03/08 04:53:42;;;;;;;61.23;19.53;;;-2.80;26.50;;;;;;5047141;28;20670;-67
2022/03/08 04:56:10;;;;;;;57.67;18.87;;;-2.90;26.60;;;;;;5046108;28;20524;-67
2022/03/08 04:58:37;;;;;;;58.73;17.13;;;-2.90;26.50;;;;;;5048409;28;20457;-67
2022/03/08 05:01:03;;;;;;;57.93;18.80;;;-2.90;26.50;;;;;;5046496;28;20480;-69
2022/03/08 05:03:30;;;;;;;58.50;18.63;;;-2.90;26.50;;;;;;5047306;28;20465;-69
2022/03/08 05:05:57;;;;;;;56.10;17.70;;;-2.90;26.50;;;;;;5048181;28;20959;-69
2022/03/08 05:08:25;;;;;;;57.90;19.53;;;-2.90;26.50;;;;;;5048364;28;20534;-69
2022/03/08 05:10:52;;;;;;;59.60;17.30;;;-2.90;26.50;;;;;;5046867;28;20981;-69
2022/03/08 05:13:20;;;;;;;58.00;17.20;;;-3.00;26.50;;;;;;5047656;28;20980;-69
2022/03/08 05:15:48;;;;;;;58.83;18.50;;;-3.00;26.80;;;;;;5047756;28;20493;-68
2022/03/08 05:18:15;;;;;;;58.67;17.73;;;-3.00;26.50;;;;;;5048306;28;20480;-69
2022/03/08 05:20:42;;;;;;;59.93;18.77;;;-3.00;26.50;;;;;;5048253;28;20515;-69
2022/03/08 05:23:09;;;;;;;63.90;17.83;;;-3.00;26.40;;;;;;5046356;28;20478;-69
2022/03/08 05:25:36;;;;;;;62.03;20.23;;;-3.10;26.60;;;;;;5048218;28;20553;-69
2022/03/08 05:28:03;;;;;;;59.63;17.97;;;-3.00;26.80;;;;;;5047569;28;20970;-69
2022/03/08 05:30:31;;;;;;;62.43;19.60;;;-3.10;26.90;;;;;;5046590;28;20462;-69
2022/03/08 05:32:58;;;;;;;61.33;19.23;;;-3.10;27.00;;;;;;5046320;28;20588;-69
2022/03/08 05:35:24;;;;;;;55.97;17.40;;;-3.10;27.10;;;;;;5047812;28;20458;-69
2022/03/08 05:37:51;;;;;;;60.40;16.87;;;-3.10;27.20;;;;;;5047146;28;20572;-69
2022/03/08 05:40:18;;;;;;;58.23;18.10;;;-3.10;27.20;;;;;;5047849;28;20496;-69
2022/03/08 05:42:45;;;;;;;60.17;17.57;;;-3.10;27.40;;;;;;5046802;28;20485;-69
2022/03/08 05:45:12;;;;;;;55.83;17.87;;;-3.10;27.40;;;;;;5046941;28;20466;-69
2022/03/08 05:47:41;;;;;;;59.50;18.40;;;-3.10;27.40;;;;;;5047407;28;20457;-69
2022/03/08 05:50:10;;;;;;;58.40;18.30;;;-3.10;27.40;;;;;;5047888;28;20462;-69
2022/03/08 05:52:37;;;;;;;59.27;18.70;;;-3.10;27.30;;;;;;5046227;28;20479;-69
2022/03/08 05:55:04;;;;;;;61.13;19.07;;;-3.10;27.40;;;;;;5047505;28;20470;-69
2022/03/08 05:57:31;;;;;;;55.70;17.53;;;-3.10;27.40;;;;;;5047243;28;20508;-69
2022/03/08 05:59:58;;;;;;;58.43;17.60;;;-3.00;27.30;;;;;;5048137;28;20462;-69
2022/03/08 06:02:24;;;;;;;66.33;18.47;;;-3.00;27.00;;;;;;5048101;28;20569;-67
2022/03/08 06:04:53;;;;;;;58.63;17.43;;;-3.00;26.90;;;;;;5050671;28;20465;-67
2022/03/08 06:07:21;;;;;;;65.17;18.17;;;-3.00;26.90;;;;;;5051292;28;20839;-68
2022/03/08 06:09:48;;;;;;;62.70;18.30;;;-3.00;26.80;;;;;;5051314;28;20462;-67
2022/03/08 06:12:14;;;;;;;56.27;18.10;;;-3.00;26.70;;;;;;5051594;28;20485;-68
2022/03/08 06:14:41;;;;;;;60.57;18.17;;;-2.90;26.90;;;;;;5050738;28;20974;-67
2022/03/08 06:17:09;;;;;;;62.77;19.63;;;-2.50;27.30;;;;;;5050674;28;20798;-68
2022/03/08 06:19:36;;;;;;;59.57;18.57;;;-2.70;27.50;;;;;;5051793;28;20457;-68
2022/03/08 06:22:05;;;;;;;56.43;18.57;;;-2.50;27.50;;;;;;5050562;28;20481;-68
2022/03/08 06:24:32;;;;;;;56.10;18.13;;;-2.20;27.20;;;;;;5055491;28;20462;-68
2022/03/08 06:26:59;;;;;;;57.80;17.73;;;-1.80;26.40;;;;;;5053988;28;20450;-68
2022/03/08 06:29:26;;;;;;;54.57;17.10;;;-1.10;25.40;;;;;;5051280;28;20461;-68
2022/03/08 06:31:52;;;;;;;54.73;17.80;;;-0.20;23.60;;;;;;5055959;23;20490;-66
2022/03/08 06:34:19;;;;;;;60.17;18.27;;;0.80;21.70;;;;;;5020187;28;20464;-65
2022/03/08 06:36:48;;;;;;;56.73;19.17;;;1.90;19.50;;;;;;5031217;28;20921;-66
2022/03/08 06:39:16;;;;;;;52.43;15.57;;;2.60;17.80;;;;;;5031046;28;20962;-65
2022/03/08 06:41:44;;;;;;;54.60;17.53;;;3.30;16.50;;;;;;5030873;28;20475;-65
2022/03/08 06:44:11;;;;;;;52.27;17.47;;;3.60;15.10;;;;;;5030358;28;20463;-65
2022/03/08 06:46:41;;;;;;;51.90;17.00;;;3.80;14.80;;;;;;5029402;28;20977;-65
2022/03/08 06:49:09;;;;;;;49.17;16.00;;;3.90;14.70;;;;;;5025745;28;20509;-68
2022/03/08 06:51:37;;;;;;;54.87;16.00;;;3.90;14.40;;;;;;5030260;28;20982;-66
2022/03/08 06:54:04;;;;;;;45.83;14.37;;;4.10;14.30;;;;;;5031303;28;20463;-66
2022/03/08 06:56:33;;;;;;;50.67;16.37;;;4.20;14.00;;;;;;5028955;28;21236;-66
2022/03/08 06:59:00;;;;;;;48.10;15.83;;;4.30;14.00;;;;;;5030921;28;20957;-66
2022/03/08 07:01:27;;;;;;;49.23;17.53;;;4.60;13.60;;;;;;5029813;28;21066;-66
2022/03/08 07:03:54;;;;;;;49.27;16.37;;;4.90;12.80;;;;;;5030940;28;20811;-66
2022/03/08 07:06:20;;;;;;;52.67;17.60;;;5.10;13.00;;;;;;5029220;28;20462;-66
2022/03/08 07:08:47;;;;;;;48.50;15.60;;;5.40;13.20;;;;;;5030461;28;20624;-64
2022/03/08 07:11:14;;;;;;;49.87;15.97;;;5.70;12.90;;;;;;5030009;28;20474;-64
2022/03/08 07:13:42;;;;;;;48.47;15.47;;;6.00;12.70;;;;;;5030088;28;20969;-66
2022/03/08 07:16:09;;;;;;;48.87;16.77;;;6.40;12.30;;;;;;5029580;28;20765;-67
2022/03/08 07:18:36;;;;;;;49.57;16.50;;;6.80;11.30;;;;;;5030827;28;20463;-66
2022/03/08 07:21:04;;;;;;;48.60;16.50;;;7.60;9.90;;;;;;5030533;28;20469;-66
2022/03/08 07:23:31;;;;;;;47.87;16.47;;;8.40;8.10;;;;;;5029598;28;20979;-66
2022/03/08 07:25:57;;;;;;;46.70;16.37;;;8.70;7.20;;;;;;5030708;28;20470;-66
2022/03/08 07:28:24;;;;;;;48.17;15.93;;;9.00;6.30;;;;;;5028682;28;21058;-66
2022/03/08 07:30:52;;;;;;;46.43;16.80;;;9.30;5.90;;;;;;5030517;28;20471;-66
2022/03/08 07:33:19;;;;;;;45.67;15.07;;;9.60;5.00;;;;;;5029320;28;20486;-65
2022/03/08 07:35:46;;;;;;;46.93;14.97;;;10.00;4.40;;;;;;5030428;28;20463;-68
2022/03/08 07:38:13;;;;;;;47.50;14.67;;;11.00;3.60;;;;;;5028468;28;20486;-68
2022/03/08 07:40:40;;;;;;;42.67;14.63;;;12.20;1.70;;;;;;5025802;28;20470;-67
2022/03/08 07:43:06;;;;;;;43.57;15.63;;;13.00;1.00;;;;;;5009934;28;20472;-67
2022/03/08 07:45:35;;;;;;;43.87;15.47;;;14.00;1.00;;;;;;5010041;28;20887;-66
2022/03/08 07:48:04;;;;;;;43.20;15.07;;;14.80;1.00;;;;;;5014894;28;20459;-66
2022/03/08 07:50:32;;;;;;;45.97;16.20;;;15.80;1.00;;;;;;5030963;28;20553;-66
2022/03/08 07:53:00;;;;;;;43.70;14.77;;;16.40;1.00;;;;;;5029702;28;20475;-67
2022/03/08 07:55:27;;;;;;;43.47;14.47;;;16.60;1.00;;;;;;5029198;28;20465;-67
2022/03/08 07:57:54;;;;;;;40.40;14.37;;;17.30;1.00;;;;;;5027864;28;20482;-67
2022/03/08 08:00:20;;;;;;;40.80;14.33;;;18.00;1.00;;;;;;5028970;28;20455;-68
2022/03/08 08:02:47;;;;;;;43.40;15.80;;;18.50;1.00;;;;;;5029410;28;20475;-68
2022/03/08 08:05:17;;;;;;;42.97;14.80;;;19.40;1.00;;;;;;5029439;28;20847;-66
2022/03/08 08:07:43;;;;;;;42.70;14.30;;;20.40;1.00;;;;;;5029996;28;20459;-66
2022/03/08 08:10:11;;;;;;;39.17;14.10;;;21.00;1.00;;;;;;5027867;28;20454;-68
2022/03/08 08:12:38;;;;;;;39.70;14.10;;;21.70;1.00;;;;;;5029238;28;20470;-67
2022/03/08 08:15:06;;;;;;;38.17;13.63;;;22.30;1.00;;;;;;5029664;28;20462;-66
2022/03/08 08:17:33;;;;;;;42.43;13.90;;;22.50;1.00;;;;;;5028970;28;20484;-66
2022/03/08 08:20:00;;;;;;;37.30;13.43;;;22.90;1.00;;;;;;5027289;28;20513;-66
2022/03/08 08:22:28;;;;;;;38.20;14.03;;;23.30;1.00;;;;;;5029059;28;20486;-66
2022/03/08 08:24:55;;;;;;;37.70;13.43;;;23.80;1.00;;;;;;5028673;28;20459;-66
2022/03/08 08:27:21;;;;;;;37.27;13.40;;;24.00;1.00;;;;;;5029090;28;20455;-66
2022/03/08 08:29:48;;;;;;;36.83;13.10;;;23.70;1.00;;;;;;5028472;28;20459;-66
2022/03/08 08:32:15;;;;;;;38.57;12.20;;;24.30;1.00;;;;;;5028091;28;20710;-65
2022/03/08 08:34:42;;;;;;;36.40;12.50;;;23.90;1.00;;;;;;5019457;28;20481;-67
2022/03/08 08:37:09;;;;;;;34.83;11.80;;;24.40;1.00;;;;;;5028519;28;20490;-67
2022/03/08 08:39:38;;;;;;;36.50;11.60;;;24.90;1.00;;;;;;5027072;28;20471;-69
2022/03/08 08:42:05;;;;;;;35.73;12.40;;;25.20;1.00;;;;;;5028321;28;20479;-66
2022/03/08 08:44:32;;;;;;;41.23;12.20;;;25.90;1.00;;;;;;5028692;28;20849;-68
2022/03/08 08:46:59;;;;;;;37.07;12.60;;;26.40;1.00;;;;;;5028709;28;20665;-67
2022/03/08 08:49:26;;;;;;;34.60;12.10;;;26.30;1.00;;;;;;5027057;28;20554;-67
2022/03/08 08:51:53;;;;;;;33.60;10.70;;;25.90;1.00;;;;;;5008665;28;21002;-66
2022/03/08 08:54:20;;;;;;;35.13;12.70;;;25.90;1.00;;;;;;5008816;28;20459;-67
2022/03/08 08:56:48;;;;;;;34.40;11.10;;;26.20;1.00;;;;;;5009030;28;20451;-67
2022/03/08 08:59:15;;;;;;;34.83;10.90;;;26.60;1.00;;;;;;5009021;28;20554;-68
2022/03/08 09:01:42;;;;;;;34.40;11.23;;;26.20;1.00;;;;;;5023685;28;21023;-68
2022/03/08 09:04:09;;;;;;;34.80;11.70;;;25.40;1.00;;;;;;5028135;28;20455;-65
2022/03/08 09:06:35;;;;;;;33.20;10.33;;;25.20;1.00;;;;;;5028947;28;20546;-66
2022/03/08 09:09:03;;;;;;;34.83;11.50;;;25.40;1.00;;;;;;5028606;28;20457;-67
2022/03/08 09:11:30;;;;;;;33.50;10.20;;;25.20;1.00;;;;;;5026956;28;21042;-67
2022/03/08 09:13:59;;;;;;;36.03;11.67;;;25.30;1.00;;;;;;5028637;28;20499;-67
2022/03/08 09:16:27;;;;;;;36.10;11.50;;;26.30;1.00;;;;;;5027822;28;20459;-67
2022/03/08 09:18:53;;;;;;;33.23;10.73;;;27.40;1.00;;;;;;5027494;28;20508;-67
2022/03/08 09:21:20;;;;;;;33.40;9.70;;;28.10;1.00;;;;;;5027021;28;20462;-67
2022/03/08 09:23:47;;;;;;;34.60;10.80;;;28.20;1.00;;;;;;5027877;28;20463;-67
2022/03/08 09:26:14;;;;;;;33.90;10.93;;;27.50;1.00;;;;;;5028377;28;20458;-67
2022/03/08 09:28:40;;;;;;;33.77;10.97;;;27.10;1.00;;;;;;5027697;28;20466;-67
2022/03/08 09:31:09;;;;;;;34.77;10.97;;;26.40;1.00;;;;;;5026836;28;20470;-68
2022/03/08 09:33:57;;;;;;;37.00;11.77;;;25.40;1.00;;;;;;5027722;28;20497;-67
2022/03/08 09:36:24;;;;;;;35.83;11.33;;;25.00;1.00;;;;;;5027783;28;20455;-68
2022/03/08 09:38:51;;;;;;;34.70;10.30;;;24.80;1.00;;;;;;5028137;28;20483;-66
2022/03/08 09:41:18;;;;;;;35.87;11.03;;;24.80;1.00;;;;;;5027082;28;20469;-67
2022/03/08 09:43:45;;;;;;;34.70;11.40;;;25.30;1.00;;;;;;5026309;28;20463;-66
2022/03/08 09:46:13;;;;;;;37.27;12.43;;;25.50;1.00;;;;;;5027331;28;20827;-66
2022/03/08 09:48:40;;;;;;;34.37;11.23;;;25.70;1.00;;;;;;5028150;28;20455;-66
2022/03/08 09:51:07;;;;;;;36.57;11.57;;;25.60;1.00;;;;;;5027336;28;20461;-68
2022/03/08 09:53:35;;;;;;;34.50;10.50;;;25.00;1.00;;;;;;5026382;28;20494;-67
2022/03/08 09:56:03;;;;;;;35.37;11.07;;;25.00;1.00;;;;;;5027387;28;20494;-68
2022/03/08 09:58:29;;;;;;;36.47;11.93;;;24.30;1.00;;;;;;5027714;28;20977;-67
2022/03/08 10:00:59;;;;;;;36.10;11.70;;;24.10;1.00;;;;;;5027281;28;20845;-68
2022/03/08 10:03:35;;;;;;;34.77;10.43;;;24.80;1.00;;;;;;5025527;28;20510;-67
2022/03/08 10:06:03;;;;;;;35.97;10.50;;;25.70;1.00;;;;;;5027931;28;20465;-66
2022/03/08 10:08:30;;;;;;;35.17;10.60;;;25.80;1.00;;;;;;5027122;28;20970;-66
2022/03/08 10:10:59;;;;;;;35.07;10.07;;;25.80;1.00;;;;;;5028510;28;20466;-67
2022/03/08 10:13:29;;;;;;;35.67;11.00;;;25.70;1.00;;;;;;5025320;28;21002;-66
2022/03/08 10:16:14;;;;;;;36.17;10.27;;;24.70;1.00;;;;;;5027807;28;20851;-66
2022/03/08 10:18:46;;;;;;;36.63;10.40;;;23.90;1.00;;;;;;5027186;28;20467;-66
2022/03/08 10:21:26;;;;;;;39.63;10.80;;;23.90;1.00;;;;;;5027844;28;20508;-66
2022/03/08 10:23:53;;;;;;;35.80;10.10;;;24.40;1.00;;;;;;5025858;28;20802;-65
2022/03/08 10:26:21;;;;;;;35.70;10.70;;;25.50;1.00;;;;;;5027636;28;20463;-67
2022/03/08 10:28:51;;;;;;;34.80;10.60;;;26.50;1.00;;;;;;5028248;28;20470;-66
2022/03/08 10:31:18;;;;;;;33.47;9.80;;;27.60;1.00;;;;;;5027040;28;20673;-67
2022/03/08 10:33:47;;;;;;;35.63;9.97;;;28.30;1.00;;;;;;5023931;28;20486;-66
2022/03/08 10:36:16;;;;;;;34.80;8.20;;;28.90;1.00;;;;;;5028230;28;20462;-66
2022/03/08 10:39:09;;;;;;;33.10;7.50;;;28.10;1.00;;;;;;5027698;28;20474;-66
2022/03/08 10:41:40;;;;;;;32.30;8.30;;;26.30;1.00;;;;;;5027351;28;20807;-66
2022/03/08 10:44:07;;;;;;;33.60;9.03;;;25.80;1.00;;;;;;5026031;28;20873;-67
2022/03/08 10:46:34;;;;;;;31.50;7.10;;;25.30;1.00;;;;;;5007896;28;20837;-67
2022/03/08 10:49:11;;;;;;;32.67;8.20;;;24.80;1.00;;;;;;5009653;28;20957;-67
2022/03/08 10:51:37;;;;;;;34.50;8.43;;;24.60;1.00;;;;;;5011062;28;20510;-68
2022/03/08 10:54:15;;;;;;;33.17;8.90;;;24.70;1.00;;;;;;5010569;28;20467;-67
2022/03/08 10:56:46;;;;;;;32.03;8.40;;;24.00;1.00;;;;;;5027977;28;20905;-68
2022/03/08 10:59:15;;;;;;;34.20;9.53;;;24.30;1.00;;;;;;5030751;28;20833;-65
2022/03/08 11:01:42;;;;;;;35.30;9.53;;;24.20;1.00;;;;;;5030392;28;20565;-66
2022/03/08 11:04:19;;;;;;;34.97;8.30;;;23.50;1.00;;;;;;5031287;28;20462;-66
2022/03/08 11:06:50;;;;;;;37.17;9.03;;;22.40;1.00;;;;;;5028886;28;20469;-67
2022/03/08 11:09:17;;;;;;;37.47;10.20;;;22.00;1.00;;;;;;5030772;28;20501;-67
2022/03/08 11:11:44;;;;;;;35.37;9.17;;;22.20;1.00;;;;;;5030670;28;20475;-67
2022/03/08 11:14:11;;;;;;;36.07;9.10;;;22.40;1.00;;;;;;5011956;28;20964;-66
2022/03/08 11:16:39;;;;;;;34.37;9.10;;;22.50;1.00;;;;;;5019647;28;20545;-66
2022/03/08 11:19:06;;;;;;;38.30;8.90;;;22.80;1.00;;;;;;5028518;28;20483;-67
2022/03/08 11:21:36;;;;;;;34.10;7.97;;;22.90;1.00;;;;;;5029742;28;20475;-67
2022/03/08 11:24:05;;;;;;;34.00;8.90;;;23.00;1.00;;;;;;5030766;28;20556;-68
2022/03/08 11:26:31;;;;;;;34.27;8.40;;;22.70;1.00;;;;;;5025135;28;20459;-66
2022/03/08 11:28:59;;;;;;;34.47;9.07;;;22.30;1.00;;;;;;5017850;28;20455;-65
2022/03/08 11:31:31;;;;;;;35.23;8.43;;;22.50;1.00;;;;;;5015895;28;20471;-66
2022/03/08 11:34:05;;;;;;;34.43;8.83;;;23.40;1.00;;;;;;5010372;28;20440;-67
2022/03/08 11:36:36;;;;;;;33.43;8.63;;;24.30;1.00;;;;;;5012464;28;20521;-66
2022/03/08 11:39:18;;;;;;;34.40;9.30;;;24.70;1.00;;;;;;5030172;28;20469;-67
2022/03/08 11:45:11;;;;;;;33.67;7.70;;;21.50;1.00;;;;;;5029687;28;20402;-67
2022/03/08 11:47:40;;;;;;;33.17;8.40;;;20.30;1.00;;;;;;5028776;28;20554;-67
2022/03/08 11:50:18;;;;;;;35.80;8.47;;;19.60;1.00;;;;;;5029707;28;20771;-67
2022/03/08 11:52:52;;;;;;;34.30;8.53;;;18.70;1.00;;;;;;5029458;28;20512;-67
2022/03/08 11:55:26;;;;;;;35.60;8.90;;;18.20;1.00;;;;;;5029807;28;20458;-67
2022/03/08 11:57:55;;;;;;;34.50;7.90;;;17.70;1.00;;;;;;5027958;28;20516;-66
2022/03/08 12:00:24;;;;;;;40.93;9.00;;;17.20;1.00;;;;;;5026947;28;20490;-68
2022/03/08 12:02:53;;;;;;;34.90;8.37;;;16.90;1.00;;;;;;5029035;28;20481;-66
2022/03/08 12:05:46;;;;;;;36.33;8.50;;;16.20;1.00;;;;;;5024641;28;20467;-67
2022/03/08 12:08:46;;;;;;;35.27;8.00;;;15.20;1.00;;;;;;5015398;28;20823;-66
2022/03/08 12:11:42;;;;;;;36.27;8.43;;;14.70;1.00;;;;;;5027810;28;20495;-68
2022/03/08 12:14:12;;;;;;;34.77;7.67;;;14.20;1.00;;;;;;5009499;28;20460;-68
2022/03/08 12:16:42;;;;;;;35.83;7.57;;;13.90;1.00;;;;;;5014095;28;20455;-67
2022/03/08 12:19:10;;;;;;;36.80;7.77;;;13.70;1.00;;;;;;5023296;28;20537;-66
2022/03/08 12:21:47;;;;;;;36.30;8.20;;;13.80;1.00;;;;;;5017186;28;20472;-67
2022/03/08 12:24:21;;;;;;;37.30;8.70;;;13.70;1.00;;;;;;5016747;28;20460;-66
2022/03/08 12:27:11;;;;;;;38.57;8.27;;;13.60;1.00;;;;;;5015912;28;20482;-65
2022/03/08 12:29:52;;;;;;;37.40;8.03;;;13.60;1.00;;;;;;5017772;28;20459;-67
2022/03/08 12:32:28;;;;;;;37.57;8.53;;;13.20;1.00;;;;;;5023823;28;20483;-67
2022/03/08 12:35:04;;;;;;;39.37;8.37;;;12.70;1.00;;;;;;5013287;28;20453;-67
2022/03/08 12:37:39;;;;;;;38.30;8.10;;;12.10;1.00;;;;;;5020012;28;20458;-68
2022/03/08 12:40:08;;;;;;;38.17;8.30;;;11.80;1.00;;;;;;5023401;28;20781;-66
2022/03/08 12:42:39;;;;;;;37.93;7.90;;;11.40;1.00;;;;;;5020644;28;20480;-66